createdAt,value
2023-03-20T00:00:45.406Z,10.47
2023-03-20T00:05:47.093Z,10.52
2023-03-20T00:10:48.570Z,10.60
2023-03-20T00:15:50.281Z,10.70
2023-03-20T00:20:53.532Z,10.80
2023-03-20T00:25:55.983Z,10.82
2023-03-20T00:30:57.430Z,10.80
2023-03-20T00:35:59.021Z,10.81
2023-03-20T00:41:00.639Z,10.82
2023-03-20T00:46:03.109Z,10.84
2023-03-20T00:51:05.901Z,10.88
2023-03-20T00:56:30.313Z,10.85
2023-03-20T01:01:32.157Z,10.81
2023-03-20T01:06:33.634Z,10.82
2023-03-20T01:11:35.791Z,10.87
2023-03-20T01:16:37.357Z,10.87
2023-03-20T01:21:38.815Z,10.86
2023-03-20T01:26:42.919Z,10.74
2023-03-20T01:31:44.985Z,10.64
2023-03-20T01:36:52.908Z,10.58
2023-03-20T01:41:54.720Z,10.55
2023-03-20T01:46:58.366Z,10.53
2023-03-20T01:52:00.454Z,10.52
2023-03-20T01:57:17.241Z,10.52
2023-03-20T02:02:23.561Z,10.51
2023-03-20T02:07:25.611Z,10.52
2023-03-20T02:12:42.177Z,10.54
2023-03-20T02:17:46.312Z,10.54
2023-03-20T02:23:25.709Z,10.59
2023-03-20T02:28:47.794Z,10.59
2023-03-20T02:34:35.588Z,10.62
2023-03-20T02:40:01.684Z,10.64
2023-03-20T02:45:14.652Z,10.67
2023-03-20T02:50:20.814Z,10.72
2023-03-20T02:55:30.184Z,10.75
2023-03-20T03:00:39.231Z,10.75
2023-03-20T03:05:54.147Z,10.77
2023-03-20T03:11:04.109Z,10.76
2023-03-20T03:16:12.189Z,10.75
2023-03-20T03:21:17.899Z,10.69
2023-03-20T03:26:31.320Z,10.63
2023-03-20T03:31:33.397Z,10.63
2023-03-20T03:37:02.381Z,10.60
2023-03-20T03:42:33.891Z,10.61
2023-03-20T03:47:41.833Z,10.71
2023-03-20T03:52:46.837Z,10.76
2023-03-20T03:58:03.037Z,10.79
2023-03-20T04:03:07.273Z,10.78
2023-03-20T04:08:08.973Z,10.78
2023-03-20T04:13:11.707Z,10.78
2023-03-20T04:18:17.604Z,10.77
2023-03-20T04:23:20.543Z,10.71
2023-03-20T04:28:23.012Z,10.60
2023-03-20T04:33:31.830Z,10.53
2023-03-20T04:38:57.769Z,10.43
2023-03-20T04:44:00.189Z,10.31
2023-03-20T04:49:01.968Z,10.24
2023-03-20T04:54:05.012Z,10.20
2023-03-20T04:59:06.639Z,10.21
2023-03-20T05:04:08.620Z,10.25
2023-03-20T05:09:11.539Z,10.28
2023-03-20T05:14:13.207Z,10.34
2023-03-20T05:19:39.680Z,10.42
2023-03-20T05:25:09.777Z,10.51
2023-03-20T05:30:40.885Z,10.54
2023-03-20T05:36:02.008Z,10.53
2023-03-20T05:41:28.088Z,10.53
2023-03-20T05:46:45.864Z,10.50
2023-03-20T05:52:11.155Z,10.46
2023-03-20T05:57:22.714Z,10.43
2023-03-20T06:02:27.352Z,10.41
2023-03-20T06:07:39.108Z,10.35
2023-03-20T06:12:46.392Z,10.31
2023-03-20T06:17:49.502Z,10.27
2023-03-20T06:22:51.599Z,10.24
2023-03-20T06:27:54.025Z,10.24
2023-03-20T06:32:55.825Z,10.25
2023-03-20T06:38:03.710Z,10.36
2023-03-20T06:43:05.445Z,10.50
2023-03-20T06:48:22.459Z,10.62
2023-03-20T06:53:24.969Z,10.64
2023-03-20T06:58:36.525Z,10.70
2023-03-20T07:03:37.957Z,10.79
2023-03-20T07:08:39.976Z,10.94
2023-03-20T07:13:41.624Z,11.05
2023-03-20T07:18:56.761Z,11.20
2023-03-20T07:23:58.908Z,11.39
2023-03-20T07:29:02.099Z,11.60
2023-03-20T07:34:03.995Z,11.78
2023-03-20T07:39:09.924Z,12.11
2023-03-20T07:44:14.377Z,12.28
2023-03-20T07:49:22.924Z,12.55
2023-03-20T07:54:24.507Z,12.66
2023-03-20T07:59:26.077Z,12.79
2023-03-20T08:04:27.784Z,12.85
2023-03-20T08:09:29.285Z,12.87
2023-03-20T08:14:31.004Z,12.88
2023-03-20T08:19:32.453Z,12.81
2023-03-20T08:24:34.443Z,12.69
2023-03-20T08:29:36.061Z,12.68
2023-03-20T08:34:37.628Z,12.70
2023-03-20T08:39:39.732Z,12.73
2023-03-20T08:44:41.481Z,12.78
2023-03-20T08:49:43.612Z,12.74
2023-03-20T08:54:45.340Z,12.70
2023-03-20T08:59:46.786Z,12.64
2023-03-20T09:04:48.201Z,12.88
2023-03-20T09:09:49.925Z,13.16
2023-03-20T09:14:51.401Z,13.22
2023-03-20T09:19:52.908Z,12.97
2023-03-20T09:24:54.357Z,12.88
2023-03-20T09:29:56.039Z,13.07
2023-03-20T09:34:57.558Z,13.26
2023-03-20T09:39:59.038Z,13.23
2023-03-20T09:45:48.633Z,13.02
2023-03-20T09:50:59.316Z,12.69
2023-03-20T09:56:01.519Z,12.53
2023-03-20T10:01:06.627Z,12.51
2023-03-20T10:06:14.452Z,12.62
2023-03-20T10:11:35.511Z,12.70
2023-03-20T10:16:52.175Z,12.65
2023-03-20T10:22:02.672Z,12.65
2023-03-20T10:27:18.403Z,12.95
2023-03-20T10:32:36.580Z,13.18
2023-03-20T10:37:53.161Z,13.42
2023-03-20T10:43:13.126Z,13.68
2023-03-20T10:48:31.145Z,13.75
2023-03-20T10:53:40.401Z,13.63
2023-03-20T10:58:47.080Z,13.58
2023-03-20T11:03:48.617Z,13.61
2023-03-20T11:08:52.998Z,13.66
2023-03-20T11:13:55.119Z,13.58
2023-03-20T11:19:06.074Z,13.40
2023-03-20T11:24:24.150Z,13.35
2023-03-20T11:29:35.142Z,13.41
2023-03-20T11:34:38.635Z,13.55
2023-03-20T11:39:59.353Z,13.78
2023-03-20T11:45:04.209Z,13.95
2023-03-20T11:50:07.170Z,14.01
2023-03-20T11:55:33.602Z,13.95
2023-03-20T12:00:40.388Z,13.99
2023-03-20T12:05:41.871Z,13.94
2023-03-20T12:10:50.886Z,13.89
2023-03-20T12:15:59.702Z,13.86
2023-03-20T12:21:14.039Z,13.90
2023-03-20T12:26:21.149Z,13.82
2023-03-20T12:31:50.094Z,13.79
2023-03-20T12:36:57.252Z,13.74
2023-03-20T12:42:04.842Z,13.58
2023-03-20T12:47:32.861Z,13.58
2023-03-20T12:53:17.532Z,13.67
2023-03-20T12:58:44.263Z,13.63
2023-03-20T13:03:52.688Z,13.54
2023-03-20T13:09:31.864Z,13.49
2023-03-20T13:15:01.736Z,13.46
2023-03-20T13:20:27.611Z,13.52
2023-03-20T13:25:47.379Z,13.65
2023-03-20T13:31:04.391Z,13.70
2023-03-20T13:36:34.528Z,13.65
2023-03-20T13:41:36.804Z,13.49
2023-03-20T13:46:45.785Z,13.38
2023-03-20T13:51:58.130Z,13.38
2023-03-20T13:57:10.257Z,13.35
2023-03-20T14:02:27.971Z,13.26
2023-03-20T14:07:35.364Z,13.14
2023-03-20T14:12:36.800Z,13.06
2023-03-20T14:17:44.547Z,13.04
2023-03-20T14:22:48.905Z,12.70
2023-03-20T14:27:58.241Z,12.20
2023-03-20T14:33:05.742Z,11.94
2023-03-20T14:38:28.883Z,11.79
2023-03-20T14:43:45.530Z,11.80
2023-03-20T14:48:52.750Z,11.81
2023-03-20T14:53:58.598Z,11.81
2023-03-20T14:59:07.207Z,11.74
2023-03-20T15:04:20.790Z,11.65
2023-03-20T15:09:25.612Z,11.58
2023-03-20T15:14:29.630Z,11.63
2023-03-20T15:19:33.440Z,11.67
2023-03-20T15:24:35.018Z,11.59
2023-03-20T15:29:36.495Z,11.46
2023-03-20T15:34:39.669Z,11.35
2023-03-20T15:39:45.274Z,11.31
2023-03-20T15:44:49.375Z,11.37
2023-03-20T15:50:02.659Z,11.47
2023-03-20T15:55:14.427Z,11.56
2023-03-20T16:00:39.839Z,11.57
2023-03-20T16:05:45.248Z,11.56
2023-03-20T16:10:46.852Z,11.56
2023-03-20T16:15:48.654Z,11.56
2023-03-20T16:20:56.016Z,11.57
2023-03-20T16:26:02.879Z,11.54
2023-03-20T16:31:09.634Z,11.44
2023-03-20T16:36:20.869Z,11.36
2023-03-20T16:41:34.597Z,11.28
2023-03-20T16:46:36.089Z,11.28
2023-03-20T16:51:37.635Z,11.33
2023-03-20T16:56:40.458Z,11.35
2023-03-20T17:01:44.810Z,11.37
2023-03-20T17:06:49.838Z,11.37
2023-03-20T17:12:00.615Z,11.34
2023-03-20T17:17:02.122Z,11.21
2023-03-20T17:22:14.055Z,11.19
2023-03-20T17:27:16.839Z,11.23
2023-03-20T17:32:20.457Z,11.18
2023-03-20T17:37:29.441Z,11.13
2023-03-20T17:42:31.498Z,11.12
2023-03-20T17:47:32.993Z,11.12
2023-03-20T17:52:34.419Z,11.12
2023-03-20T17:57:38.609Z,11.08
2023-03-20T18:02:40.070Z,11.02
2023-03-20T18:07:41.684Z,10.97
2023-03-20T18:12:43.186Z,10.93
2023-03-20T18:17:44.706Z,10.94
2023-03-20T18:22:46.142Z,10.87
2023-03-20T18:27:49.178Z,10.79
2023-03-20T18:32:51.212Z,10.80
2023-03-20T18:37:52.807Z,10.83
2023-03-20T18:42:55.711Z,10.84
2023-03-20T18:47:58.155Z,10.85
2023-03-20T18:52:59.693Z,10.88
2023-03-20T18:58:05.980Z,10.89
2023-03-20T19:03:08.894Z,10.90
2023-03-20T19:08:15.673Z,10.91
2023-03-20T19:13:19.893Z,10.91
2023-03-20T19:18:23.395Z,10.84
2023-03-20T19:23:28.550Z,10.91
2023-03-20T19:28:40.720Z,10.91
2023-03-20T19:33:43.045Z,10.78
2023-03-20T19:38:44.483Z,10.75
2023-03-20T19:43:52.369Z,10.79
2023-03-20T19:48:57.850Z,10.78
2023-03-20T19:53:59.419Z,10.69
2023-03-20T19:59:01.461Z,10.57
2023-03-20T20:04:03.049Z,10.42
2023-03-20T20:09:05.108Z,10.17
2023-03-20T20:14:09.613Z,10.00
2023-03-20T20:19:14.062Z,9.84
2023-03-20T20:24:16.253Z,9.77
2023-03-20T20:29:18.860Z,9.79
2023-03-20T20:39:45.019Z,9.87
2023-03-20T20:44:46.864Z,9.94
2023-03-20T20:49:48.410Z,10.02
2023-03-20T20:54:49.884Z,10.09
2023-03-20T20:59:54.042Z,10.13
2023-03-20T21:04:56.285Z,10.20
2023-03-20T21:09:57.723Z,10.24
2023-03-20T21:14:59.392Z,10.26
2023-03-20T21:20:00.989Z,10.24
2023-03-20T21:25:13.837Z,10.24
2023-03-20T21:30:18.614Z,10.26
2023-03-20T21:35:20.137Z,10.32
2023-03-20T21:40:21.827Z,10.40
2023-03-20T21:56:44.585Z,10.50
2023-03-20T22:07:32.975Z,10.40
2023-03-20T22:18:12.123Z,10.27
2023-03-20T22:34:25.870Z,10.36
2023-03-20T22:40:06.539Z,10.36
2023-03-20T22:44:56.878Z,10.26
2023-03-20T22:49:43.511Z,10.13
2023-03-20T22:54:45.137Z,10.04
2023-03-20T22:59:46.564Z,10.01
2023-03-20T23:04:48.214Z,9.98
2023-03-20T23:09:49.663Z,9.85
2023-03-20T23:14:51.455Z,9.77
2023-03-20T23:20:05.092Z,9.72
2023-03-20T23:25:23.881Z,9.71
2023-03-20T23:30:43.929Z,9.69
2023-03-20T23:35:46.897Z,9.66
2023-03-20T23:40:50.357Z,9.64
2023-03-20T23:45:51.914Z,9.68
2023-03-20T23:50:53.830Z,9.69
2023-03-20T23:55:56.979Z,9.70
